Time;durP1;ratioP1;P1;durP2;ratioP2;P2;SDS_P1;SDS_P2;PMS_P1;PMS_P2;Temp;Humidity;BMP_temperature;BMP_pressure;BME280_temperature;BME280_humidity;BME280_pressure;Samples;Min_cycle;Max_cycle;Signal;HPM_P1;HPM_P2
2021/09/11 00:01:42;;;;;;;10.90;10.00;;;;;;;20.47;88.50;100178.63;10255149;28;20058;-59
2021/09/11 00:06:44;;;;;;;7.53;6.93;;;;;;;20.51;87.89;100183.66;10255095;28;20047;-59
2021/09/11 00:11:46;;;;;;;7.82;7.10;;;;;;;20.46;87.98;100186.94;10257344;28;20058;-58
2021/09/11 00:16:47;;;;;;;7.93;7.32;;;;;;;20.37;87.23;100186.25;10257814;28;20058;-58
2021/09/11 00:21:49;;;;;;;7.93;7.15;;;;;;;20.32;88.15;100185.94;10259598;28;20439;-60
2021/09/11 00:26:51;;;;;;;8.00;7.20;;;;;;;20.25;88.12;100183.19;10256959;28;20125;-58
2021/09/11 00:31:52;;;;;;;9.23;8.50;;;;;;;20.16;88.42;100186.16;10258666;28;20098;-57
2021/09/11 00:36:53;;;;;;;8.20;7.40;;;;;;;20.10;88.42;100194.00;10258794;28;20049;-57
2021/09/11 00:41:55;;;;;;;8.48;7.72;;;;;;;19.94;89.18;100197.72;10257879;28;20124;-59
2021/09/11 00:46:56;;;;;;;8.13;7.43;;;;;;;19.98;88.65;100192.78;10244161;28;20100;-58
2021/09/11 00:51:58;;;;;;;9.75;8.98;;;;;;;19.88;88.93;100198.47;10251289;28;20115;-57
2021/09/11 00:57:00;;;;;;;8.65;7.95;;;;;;;19.86;89.92;100188.88;10255422;28;20055;-62
2021/09/11 01:02:02;;;;;;;8.25;7.55;;;;;;;19.80;89.92;100195.00;10249312;28;20097;-58
2021/09/11 01:07:04;;;;;;;8.93;8.13;;;;;;;19.84;90.21;100193.63;10254573;28;20106;-57
2021/09/11 01:12:07;;;;;;;9.82;7.63;;;;;;;19.88;89.69;100194.94;10256824;28;20055;-60
2021/09/11 01:17:15;;;;;;;8.93;8.13;;;;;;;19.90;89.73;100195.59;10253149;28;20082;-61
2021/09/11 01:22:17;;;;;;;8.70;8.00;;;;;;;19.89;89.17;100196.59;10249268;28;20070;-60
2021/09/11 01:27:18;;;;;;;9.10;8.27;;;;;;;19.94;89.06;100202.28;10254166;28;20481;-60
2021/09/11 01:32:21;;;;;;;9.10;8.30;;;;;;;20.03;89.82;100211.97;10256978;23;20933;-53
2021/09/11 01:37:23;;;;;;;8.70;7.90;;;;;;;20.03;88.10;100203.88;10256313;28;20683;-54
2021/09/11 01:42:26;;;;;;;8.95;8.18;;;;;;;20.11;87.82;100203.75;10264129;28;20074;-54
2021/09/11 01:47:28;;;;;;;8.50;7.80;;;;;;;20.16;88.16;100213.19;10252388;28;20133;-54
2021/09/11 01:52:29;;;;;;;9.13;8.32;;;;;;;20.17;87.73;100215.69;10251204;28;20086;-53
2021/09/11 01:57:31;;;;;;;9.38;8.48;;;;;;;20.08;88.09;100204.13;10252802;28;20137;-54
2021/09/11 02:02:32;;;;;;;9.20;8.43;;;;;;;20.07;88.18;100205.19;10258247;28;20090;-53
2021/09/11 02:07:34;;;;;;;9.65;8.75;;;;;;;20.06;88.13;100211.59;10254123;28;20059;-56
2021/09/11 02:12:36;;;;;;;8.93;8.23;;;;;;;20.02;87.99;100194.09;10258104;28;20137;-57
2021/09/11 02:17:39;;;;;;;9.90;9.00;;;;;;;19.96;88.96;100194.84;10254672;28;20153;-55
2021/09/11 02:22:40;;;;;;;9.27;8.52;;;;;;;19.90;87.60;100198.28;10256315;28;20067;-55
2021/09/11 02:27:42;;;;;;;9.95;9.15;;;;;;;19.77;88.83;100199.78;10253695;28;20500;-55
2021/09/11 02:32:43;;;;;;;10.40;9.60;;;;;;;19.70;88.73;100198.78;10254999;28;20105;-57
2021/09/11 02:37:45;;;;;;;10.27;9.48;;;;;;;19.65;89.74;100194.97;10256181;28;20453;-56
2021/09/11 02:42:46;;;;;;;10.40;9.43;;;;;;;19.59;89.07;100194.69;10251954;28;20806;-58
2021/09/11 02:47:48;;;;;;;12.77;11.82;;;;;;;19.56;89.49;100202.31;10254596;28;20049;-52
2021/09/11 02:52:49;;;;;;;9.85;8.98;;;;;;;19.54;89.62;100201.66;10255590;28;20220;-53
2021/09/11 02:57:51;;;;;;;11.30;10.20;;;;;;;19.41;89.73;100197.72;10251735;28;20105;-53
2021/09/11 03:02:53;;;;;;;10.45;9.55;;;;;;;19.31;90.25;100205.25;10256438;28;20137;-53
2021/09/11 03:07:55;;;;;;;9.98;9.05;;;;;;;19.27;91.43;100203.91;10259878;28;20073;-54
2021/09/11 03:12:57;;;;;;;10.27;9.30;;;;;;;19.28;91.13;100207.47;10251416;28;20125;-54
2021/09/11 03:17:58;;;;;;;10.70;9.77;;;;;;;19.22;91.27;100209.84;10255784;28;20059;-53
2021/09/11 03:22:59;;;;;;;9.93;9.00;;;;;;;19.23;90.72;100208.84;10255994;28;20443;-52
2021/09/11 03:28:01;;;;;;;10.77;9.68;;;;;;;19.24;90.61;100202.41;10255014;28;20070;-53
2021/09/11 03:33:02;;;;;;;10.35;9.52;;;;;;;19.20;90.30;100197.56;10252394;28;20133;-52
2021/09/11 03:38:04;;;;;;;11.40;10.35;;;;;;;19.08;91.48;100202.56;10256063;28;20101;-55
2021/09/11 03:43:05;;;;;;;10.93;9.82;;;;;;;19.19;91.30;100204.00;10260489;28;20150;-53
2021/09/11 03:48:06;;;;;;;11.38;10.27;;;;;;;19.31;89.64;100213.34;10267997;28;20148;-56
2021/09/11 03:53:08;;;;;;;10.07;9.25;;;;;;;19.40;89.98;100214.94;10259241;28;20074;-53
2021/09/11 03:58:09;;;;;;;11.00;10.07;;;;;;;19.35;89.83;100222.75;10263091;28;20223;-55
2021/09/11 04:03:11;;;;;;;10.45;9.30;;;;;;;19.34;89.85;100215.66;10257020;28;20059;-53
2021/09/11 04:08:12;;;;;;;9.75;8.88;;;;;;;19.18;89.87;100196.91;10260670;28;20129;-53
2021/09/11 04:13:14;;;;;;;11.93;10.95;;;;;;;19.29;90.20;100226.19;10261223;28;20047;-54
2021/09/11 04:18:15;;;;;;;12.27;11.07;;;;;;;19.20;89.51;100235.34;10259446;28;20082;-53
2021/09/11 04:23:17;;;;;;;10.77;9.77;;;;;;;19.19;90.34;100228.28;10257935;28;20409;-59
2021/09/11 04:28:18;;;;;;;11.13;10.13;;;;;;;19.23;90.35;100232.28;10260814;28;20438;-56
2021/09/11 04:33:19;;;;;;;10.57;9.68;;;;;;;19.24;89.82;100225.88;10257542;28;20144;-55
2021/09/11 04:38:21;;;;;;;9.82;8.98;;;;;;;19.33;89.31;100230.16;10256802;28;20146;-56
2021/09/11 04:43:22;;;;;;;9.75;8.75;;;;;;;19.35;88.23;100233.53;10253043;28;20075;-56
2021/09/11 04:48:24;;;;;;;10.48;9.57;;;;;;;19.31;88.21;100231.41;10253079;28;20125;-54
2021/09/11 04:53:25;;;;;;;9.68;8.82;;;;;;;19.12;88.97;100227.31;10254712;28;20177;-56
2021/09/11 04:58:27;;;;;;;9.05;8.15;;;;;;;19.24;89.63;100239.34;10257472;28;20109;-55
2021/09/11 05:03:28;;;;;;;9.73;8.93;;;;;;;19.06;88.54;100236.97;10257168;28;20074;-52
2021/09/11 05:08:30;;;;;;;9.55;8.65;;;;;;;19.04;89.13;100234.44;10254344;28;20050;-55
2021/09/11 05:13:31;;;;;;;9.50;8.63;;;;;;;18.95;89.55;100243.63;10248140;28;20133;-53
2021/09/11 05:18:33;;;;;;;10.05;9.15;;;;;;;18.87;89.56;100219.38;10255273;28;20050;-55
2021/09/11 05:23:34;;;;;;;10.20;9.20;;;;;;;18.98;89.59;100251.34;10258337;28;20423;-55
2021/09/11 05:28:36;;;;;;;10.00;8.85;;;;;;;19.02;88.71;100247.28;10257043;28;20117;-58
2021/09/11 05:33:37;;;;;;;8.93;8.23;;;;;;;18.97;90.26;100246.97;10257515;28;20125;-57
2021/09/11 05:38:39;;;;;;;8.88;8.13;;;;;;;19.12;88.78;100247.03;10260471;28;20047;-54
2021/09/11 05:43:40;;;;;;;8.48;7.70;;;;;;;19.15;88.66;100243.13;10254042;28;20495;-57
2021/09/11 05:48:41;;;;;;;8.65;7.88;;;;;;;19.24;87.40;100252.84;10260026;28;20051;-56
2021/09/11 05:53:43;;;;;;;7.20;6.60;;;;;;;19.22;88.56;100236.00;10258086;28;20079;-55
2021/09/11 05:58:44;;;;;;;8.27;7.57;;;;;;;19.53;86.46;100256.66;10256127;28;20468;-54
2021/09/11 06:03:46;;;;;;;7.07;6.47;;;;;;;19.49;86.48;100260.78;10253567;28;20089;-56
2021/09/11 06:08:48;;;;;;;7.75;7.10;;;;;;;19.40;86.28;100252.72;10253306;28;20145;-56
2021/09/11 06:13:49;;;;;;;7.65;6.15;;;;;;;19.43;86.30;100263.16;10256311;28;20074;-54
2021/09/11 06:18:50;;;;;;;7.00;6.40;;;;;;;19.54;85.87;100252.94;10258592;28;20121;-52
2021/09/11 06:23:52;;;;;;;8.73;7.90;;;;;;;19.55;85.97;100258.16;10258699;28;20077;-54
2021/09/11 06:28:54;;;;;;;7.03;6.30;;;;;;;19.61;86.04;100260.13;10255642;28;20055;-58
2021/09/11 06:33:56;;;;;;;7.95;7.35;;;;;;;19.62;85.62;100250.16;10256784;28;20054;-55
2021/09/11 06:38:57;;;;;;;9.50;8.65;;;;;;;19.73;86.27;100265.94;10256807;28;20074;-53
2021/09/11 06:43:59;;;;;;;7.25;6.22;;;;;;;19.93;84.96;100274.38;10251247;28;20129;-55
2021/09/11 06:49:03;;;;;;;7.03;6.30;;;;;;;19.91;84.42;100272.91;10256167;28;20047;-52
2021/09/11 06:54:04;;;;;;;7.15;6.55;;;;;;;19.83;84.60;100273.81;10248104;28;20464;-51
2021/09/11 06:59:05;;;;;;;7.00;6.38;;;;;;;19.85;84.53;100281.75;10242042;28;20136;-56
2021/09/11 07:04:07;;;;;;;7.13;6.53;;;;;;;19.93;84.93;100282.47;10240603;28;20142;-57
2021/09/11 07:09:08;;;;;;;7.93;7.22;;;;;;;19.93;84.05;100285.19;10238539;28;20043;-56
2021/09/11 07:14:10;;;;;;;6.65;6.05;;;;;;;19.77;85.43;100296.09;10238983;28;20054;-52
2021/09/11 07:19:11;;;;;;;8.02;7.22;;;;;;;19.82;85.32;100292.91;10247415;28;20051;-55
2021/09/11 07:24:13;;;;;;;7.82;7.22;;;;;;;19.67;86.31;100285.56;10245697;28;20050;-58
2021/09/11 07:29:15;;;;;;;8.40;7.60;;;;;;;19.76;85.64;100295.28;10244615;28;20170;-53
2021/09/11 07:34:16;;;;;;;9.25;8.45;;;;;;;19.72;85.81;100298.53;10245553;28;20166;-57
2021/09/11 07:39:17;;;;;;;9.55;8.73;;;;;;;19.87;84.79;100302.13;10243955;28;20129;-52
2021/09/11 07:44:19;;;;;;;9.10;8.40;;;;;;;19.81;85.13;100304.72;10274937;22;20418;-62
2021/09/11 07:49:20;;;;;;;8.20;7.55;;;;;;;20.02;83.98;100304.03;10276101;28;20173;-62
2021/09/11 07:54:22;;;;;;;7.72;6.95;;;;;;;20.19;83.09;100313.66;10256601;28;20101;-62
2021/09/11 07:59:23;;;;;;;9.43;8.63;;;;;;;20.20;82.40;100311.78;10257309;28;20065;-62
2021/09/11 08:04:24;;;;;;;9.25;8.32;;;;;;;20.31;82.00;100319.41;10255576;28;20126;-60
2021/09/11 08:09:26;;;;;;;9.27;8.40;;;;;;;20.45;81.12;100331.28;10253922;28;20471;-62
2021/09/11 08:14:27;;;;;;;7.88;7.18;;;;;;;20.56;80.72;100317.28;10258396;28;20058;-62
2021/09/11 08:19:29;;;;;;;7.90;7.30;;;;;;;20.66;79.71;100323.25;10258808;28;20109;-58
2021/09/11 08:24:30;;;;;;;10.20;8.15;;;;;;;20.70;78.27;100325.59;10258436;28;20173;-61
2021/09/11 08:29:32;;;;;;;7.78;7.15;;;;;;;20.99;78.25;100332.84;10262301;28;20056;-61
2021/09/11 08:34:34;;;;;;;11.55;8.73;;;;;;;21.11;77.15;100325.91;10263806;28;20133;-61
2021/09/11 08:39:35;;;;;;;7.45;6.85;;;;;;;21.35;76.38;100343.66;10268633;28;20070;-58
2021/09/11 08:44:37;;;;;;;8.25;7.45;;;;;;;21.49;74.40;100344.59;10264585;28;20466;-61
2021/09/11 08:49:39;;;;;;;8.35;7.72;;;;;;;21.51;73.12;100341.75;10264633;28;20149;-61
2021/09/11 08:54:40;;;;;;;8.32;7.53;;;;;;;21.62;72.70;100348.50;10262096;28;20176;-58
2021/09/11 08:59:42;;;;;;;7.75;7.00;;;;;;;21.84;72.21;100352.03;10257229;28;20055;-61
2021/09/11 09:04:53;;;;;;;8.68;7.97;;;;;;;22.23;69.87;100342.56;10264985;28;20058;-61
2021/09/11 09:10:11;;;;;;;5.85;5.35;;;;;;;22.48;69.22;100342.97;10253555;28;20140;-61
2021/09/11 09:15:16;;;;;;;8.07;7.47;;;;;;;22.44;67.92;100349.81;10255350;28;20074;-61
2021/09/11 09:20:23;;;;;;;7.32;6.72;;;;;;;22.57;68.76;100349.06;10259630;28;20050;-61
2021/09/11 09:25:33;;;;;;;5.60;5.15;;;;;;;22.42;68.30;100344.59;10258011;28;20189;-61
2021/09/11 09:30:39;;;;;;;6.20;5.22;;;;;;;22.19;68.66;100344.84;10254197;28;20057;-61
2021/09/11 09:35:41;;;;;;;6.43;5.82;;;;;;;22.31;68.60;100341.56;10256715;28;20058;-61
2021/09/11 09:40:48;;;;;;;5.93;4.93;;;;;;;23.01;65.11;100339.66;10255694;28;20111;-61
2021/09/11 09:46:02;;;;;;;6.80;5.68;;;;;;;22.89;65.05;100339.38;10255346;28;20125;-61
2021/09/11 09:51:06;;;;;;;5.63;5.22;;;;;;;22.94;65.77;100327.97;10258558;28;20057;-61
2021/09/11 09:56:08;;;;;;;5.60;5.10;;;;;;;22.80;65.11;100324.31;10255313;28;20130;-59
2021/09/11 10:01:09;;;;;;;7.15;6.40;;;;;;;22.77;64.40;100319.31;10254030;28;20145;-60
2021/09/11 10:06:17;;;;;;;5.07;4.68;;;;;;;23.02;63.93;100326.94;10254420;28;20134;-61
2021/09/11 10:11:18;;;;;;;6.82;6.22;;;;;;;23.50;63.31;100316.00;10256267;28;20133;-60
2021/09/11 10:16:29;;;;;;;5.35;3.92;;;;;;;29.14;49.35;100310.09;10255497;28;20132;-60
2021/09/11 10:21:35;;;;;;;4.05;3.60;;;;;;;32.02;40.95;100303.72;10254978;28;20082;-60
2021/09/11 10:26:47;;;;;;;4.20;3.90;;;;;;;30.03;43.64;100316.88;10249402;28;20050;-60
2021/09/11 10:31:55;;;;;;;4.40;4.03;;;;;;;27.61;48.29;100306.44;10250672;28;20066;-60
2021/09/11 10:36:58;;;;;;;3.40;3.10;;;;;;;27.29;49.89;100295.75;10252936;28;20071;-60
2021/09/11 10:42:07;;;;;;;3.67;3.38;;;;;;;27.15;48.89;100287.75;10246922;28;20133;-60
2021/09/11 10:47:09;;;;;;;4.13;3.70;;;;;;;27.00;50.02;100287.34;10248995;28;20051;-60
2021/09/11 10:52:12;;;;;;;4.38;3.42;;;;;;;31.36;40.23;100277.31;10254104;28;20047;-60
2021/09/11 10:57:16;;;;;;;4.50;3.47;;;;;;;28.72;45.35;100281.09;10262019;28;20125;-61
2021/09/11 11:02:24;;;;;;;3.45;3.15;;;;;;;26.57;49.20;100283.69;10258773;28;20512;-61
2021/09/11 11:07:28;;;;;;;4.65;3.63;;;;;;;25.46;52.80;100282.63;10255500;28;21344;-61
2021/09/11 11:12:33;;;;;;;3.60;3.25;;;;;;;25.28;53.12;100275.19;10258875;28;20054;-61
2021/09/11 11:17:37;;;;;;;3.42;3.03;;;;;;;25.87;51.50;100267.63;10265756;28;20059;-61
2021/09/11 11:22:41;;;;;;;4.68;3.42;;;;;;;25.26;53.35;100272.66;10256065;28;20504;-61
2021/09/11 11:27:42;;;;;;;3.20;2.92;;;;;;;24.85;54.74;100263.09;10257783;28;20110;-61
2021/09/11 11:32:44;;;;;;;3.35;2.60;;;;;;;24.43;56.19;100260.72;10261263;28;20138;-60
2021/09/11 11:37:45;;;;;;;3.30;2.70;;;;;;;23.96;57.99;100277.16;10263196;28;20169;-61
2021/09/11 11:42:47;;;;;;;4.07;2.13;;;;;;;23.31;60.39;100285.03;10263316;28;20154;-61
2021/09/11 11:47:54;;;;;;;3.10;1.90;;;;;;;22.98;62.34;100288.50;10265373;28;20081;-61
2021/09/11 11:53:10;;;;;;;2.45;1.80;;;;;;;23.07;62.98;100286.44;10266591;28;20081;-61
2021/09/11 11:58:14;;;;;;;2.80;2.00;;;;;;;22.22;67.51;100273.13;10261913;28;20492;-63
2021/09/11 12:03:44;;;;;;;6.35;2.10;;;;;;;21.65;72.24;100300.22;10259482;28;20109;-63
2021/09/11 12:08:48;;;;;;;3.40;2.03;;;;;;;21.41;75.50;100317.66;10267112;28;20057;-63
2021/09/11 12:14:00;;;;;;;3.22;2.20;;;;;;;21.13;76.53;100307.59;10261407;28;20572;-63
2021/09/11 12:19:31;;;;;;;5.03;2.13;;;;;;;21.04;79.27;100314.16;10253921;28;20050;-63
2021/09/11 12:24:34;;;;;;;3.78;2.60;;;;;;;21.03;79.68;100309.75;10262687;28;20050;-63
2021/09/11 12:29:36;;;;;;;2.60;1.92;;;;;;;20.70;83.52;100288.56;10264814;28;20244;-63
2021/09/11 12:34:45;;;;;;;2.80;2.30;;;;;;;21.34;82.00;100292.41;10261746;28;20069;-59
2021/09/11 12:39:55;;;;;;;3.33;1.95;;;;;;;21.91;80.05;100284.38;10263721;28;20138;-58
2021/09/11 12:44:56;;;;;;;4.28;1.92;;;;;;;22.55;77.25;100288.75;10264400;28;20065;-58
2021/09/11 12:49:58;;;;;;;1.33;1.20;;;;;;;23.24;73.14;100293.19;10265096;28;20177;-59
2021/09/11 12:54:59;;;;;;;2.30;1.48;;;;;;;24.51;68.68;100282.22;10261660;28;20070;-58
2021/09/11 13:00:00;;;;;;;1.88;1.35;;;;;;;26.32;60.89;100280.19;10259900;28;20074;-58
2021/09/11 13:05:03;;;;;;;2.25;1.88;;;;;;;26.32;59.73;100278.31;10261936;28;20303;-58
2021/09/11 13:10:05;;;;;;;2.45;1.60;;;;;;;25.99;60.78;100265.84;10256706;28;20142;-58
2021/09/11 13:15:07;;;;;;;2.13;1.93;;;;;;;25.25;62.58;100271.00;10258680;28;20479;-59
2021/09/11 13:20:09;;;;;;;1.50;1.13;;;;;;;25.00;62.93;100254.63;10261260;28;20058;-58
2021/09/11 13:25:10;;;;;;;1.70;1.38;;;;;;;25.90;61.43;100257.09;10262952;28;20142;-58
2021/09/11 13:30:12;;;;;;;2.97;1.95;;;;;;;26.32;61.33;100256.47;10257628;28;20619;-58
2021/09/11 13:35:13;;;;;;;2.53;1.90;;;;;;;26.84;58.65;100249.75;10260261;28;20516;-59
2021/09/11 13:40:16;;;;;;;2.13;1.75;;;;;;;26.44;59.16;100251.09;10265703;28;21001;-58
2021/09/11 13:45:18;;;;;;;3.25;2.40;;;;;;;26.73;56.26;100249.47;10266664;23;20767;-55
2021/09/11 13:50:19;;;;;;;3.95;2.25;;;;;;;26.07;58.50;100253.81;10241234;28;20046;-54
2021/09/11 13:55:29;;;;;;;2.65;2.00;;;;;;;26.39;57.02;100240.00;10242168;28;20051;-54
2021/09/11 14:00:31;;;;;;;2.15;1.45;;;;;;;26.62;57.34;100236.59;10240936;28;20138;-55
2021/09/11 14:05:32;;;;;;;1.63;1.52;;;;;;;26.42;54.51;100226.75;10253794;28;20063;-54
2021/09/11 14:10:34;;;;;;;2.30;1.57;;;;;;;26.11;55.03;100241.38;10239325;28;20657;-56
2021/09/11 14:15:35;;;;;;;1.95;1.42;;;;;;;25.53;57.31;100250.72;10239555;28;20145;-53
2021/09/11 14:20:37;;;;;;;3.65;1.77;;;;;;;25.30;57.22;100249.44;10237743;28;20126;-53
2021/09/11 14:25:42;;;;;;;2.83;1.70;;;;;;;24.77;59.59;100219.78;10237652;28;20050;-56
2021/09/11 14:30:44;;;;;;;2.28;1.80;;;;;;;24.72;60.89;100238.66;10237288;28;20184;-54
2021/09/11 14:35:45;;;;;;;2.00;1.50;;;;;;;24.47;59.21;100240.19;10238406;28;20050;-54
2021/09/11 14:40:47;;;;;;;1.60;1.50;;;;;;;24.16;61.62;100235.50;10239273;28;20137;-56
2021/09/11 14:45:49;;;;;;;2.10;1.58;;;;;;;24.14;61.29;100243.00;10237964;28;20419;-57
2021/09/11 14:50:50;;;;;;;2.05;1.73;;;;;;;24.21;62.19;100238.41;10235872;28;20231;-53
2021/09/11 14:55:52;;;;;;;3.25;1.88;;;;;;;24.33;60.86;100241.28;10236004;28;20070;-55
2021/09/11 15:00:53;;;;;;;2.00;1.77;;;;;;;24.60;61.46;100225.72;10237633;28;20563;-54
2021/09/11 15:05:55;;;;;;;2.28;1.85;;;;;;;24.83;60.58;100217.03;10235480;28;20137;-54
2021/09/11 15:10:57;;;;;;;5.43;4.78;;;;;;;24.72;60.95;100238.66;10231598;28;20234;-53
2021/09/11 15:16:01;;;;;;;4.10;3.80;;;;;;;24.48;62.32;100230.16;10239116;28;25050;-54
2021/09/11 15:21:02;;;;;;;3.58;2.45;;;;;;;24.25;63.71;100220.59;10242266;28;20582;-55
2021/09/11 15:26:04;;;;;;;3.88;2.65;;;;;;;24.20;64.49;100234.03;10243805;28;20141;-55
2021/09/11 15:31:06;;;;;;;3.60;3.20;;;;;;;23.99;64.76;100230.50;10241328;28;20243;-54
2021/09/11 15:36:09;;;;;;;4.63;4.20;;;;;;;23.78;65.42;100231.56;10244405;28;20051;-55
2021/09/11 15:41:10;;;;;;;3.38;3.03;;;;;;;23.50;66.75;100237.22;10247548;28;20391;-54
2021/09/11 15:46:14;;;;;;;4.78;3.30;;;;;;;23.24;67.69;100228.03;10232251;28;20111;-55
2021/09/11 15:51:16;;;;;;;3.50;2.95;;;;;;;23.27;67.43;100232.22;10248308;28;20046;-55
2021/09/11 15:56:17;;;;;;;3.45;3.15;;;;;;;23.05;68.63;100235.06;10255045;28;20042;-55
2021/09/11 16:01:20;;;;;;;4.18;3.40;;;;;;;22.91;69.29;100228.78;10255588;28;20067;-59
2021/09/11 16:06:22;;;;;;;4.03;3.63;;;;;;;22.65;70.23;100229.53;10250262;28;20058;-56
2021/09/11 16:11:23;;;;;;;6.07;4.43;;;;;;;22.63;70.98;100231.63;10241115;28;20074;-55
2021/09/11 16:16:24;;;;;;;4.13;3.70;;;;;;;22.67;70.60;100232.88;10232854;28;20133;-55
2021/09/11 16:21:26;;;;;;;4.60;4.20;;;;;;;22.77;70.38;100237.91;10242297;28;20057;-55
2021/09/11 16:26:27;;;;;;;5.50;4.25;;;;;;;22.84;70.31;100238.78;10243731;28;20046;-54
2021/09/11 16:31:29;;;;;;;4.47;4.00;;;;;;;22.78;70.55;100224.13;10246398;28;20157;-55
2021/09/11 16:36:30;;;;;;;4.45;4.05;;;;;;;22.67;71.15;100224.75;10243512;28;20050;-56
2021/09/11 16:41:32;;;;;;;5.07;4.68;;;;;;;22.68;71.05;100229.09;10244437;28;20146;-56
2021/09/11 16:46:34;;;;;;;5.43;4.57;;;;;;;22.67;71.30;100226.59;10243100;28;20047;-55
2021/09/11 16:51:35;;;;;;;6.43;5.07;;;;;;;22.52;71.74;100232.19;10242077;28;20055;-55
2021/09/11 16:56:36;;;;;;;6.20;4.90;;;;;;;22.42;72.41;100229.88;10242162;28;20070;-55
2021/09/11 17:01:39;;;;;;;5.00;4.50;;;;;;;22.43;72.63;100234.25;10242683;28;20401;-55
2021/09/11 17:06:42;;;;;;;4.87;4.47;;;;;;;22.14;72.01;100214.47;10239233;28;20051;-55
2021/09/11 17:11:43;;;;;;;4.85;4.13;;;;;;;22.28;72.78;100238.94;10243793;28;20058;-54
2021/09/11 17:16:45;;;;;;;6.47;5.88;;;;;;;22.21;72.58;100223.47;10238626;28;20128;-54
2021/09/11 17:21:47;;;;;;;6.93;6.22;;;;;;;22.27;73.16;100229.97;10239203;28;20210;-56
2021/09/11 17:26:48;;;;;;;5.00;4.60;;;;;;;22.20;73.31;100229.94;10234650;28;20137;-56
2021/09/11 17:31:50;;;;;;;6.15;5.55;;;;;;;22.08;74.12;100228.81;10239994;28;20046;-55
2021/09/11 17:36:51;;;;;;;5.70;4.57;;;;;;;21.98;74.84;100233.75;10241355;28;20721;-55
2021/09/11 17:41:53;;;;;;;9.85;5.55;;;;;;;21.97;75.02;100232.94;10233170;28;20710;-55
2021/09/11 17:46:54;;;;;;;6.25;5.20;;;;;;;21.95;75.42;100239.56;10239236;28;20051;-54
2021/09/11 17:52:00;;;;;;;8.30;6.15;;;;;;;21.94;75.46;100249.59;10241484;28;20065;-58
2021/09/11 17:57:02;;;;;;;6.22;5.50;;;;;;;21.97;75.87;100243.75;10241793;28;20836;-55
2021/09/11 18:02:04;;;;;;;6.82;6.13;;;;;;;21.95;75.59;100235.00;10238366;28;20117;-56
2021/09/11 18:07:06;;;;;;;6.22;5.63;;;;;;;21.93;74.98;100250.59;10234948;28;20213;-56
2021/09/11 18:12:08;;;;;;;7.65;4.82;;;;;;;21.85;75.36;100251.59;10239391;28;20141;-57
2021/09/11 18:17:09;;;;;;;5.65;5.15;;;;;;;21.86;74.94;100261.41;10236141;28;20461;-56
2021/09/11 18:22:11;;;;;;;4.28;3.85;;;;;;;21.62;75.39;100245.59;10197480;28;20051;-55
2021/09/11 18:27:13;;;;;;;4.68;4.20;;;;;;;21.69;75.99;100277.13;10200352;28;20054;-56
2021/09/11 18:32:26;;;;;;;4.38;3.97;;;;;;;21.66;75.50;100268.53;10236910;28;20125;-56
2021/09/11 18:37:27;;;;;;;4.40;3.58;;;;;;;21.61;75.39;100271.00;10237837;28;20079;-57
2021/09/11 18:42:29;;;;;;;4.65;3.97;;;;;;;21.60;75.09;100280.16;10239286;28;20058;-56
2021/09/11 18:47:30;;;;;;;5.18;4.68;;;;;;;21.58;76.17;100290.38;10240002;28;21053;-55
2021/09/11 18:52:32;;;;;;;5.45;4.95;;;;;;;21.58;77.35;100301.19;10235539;28;20130;-53
2021/09/11 18:57:33;;;;;;;8.45;6.90;;;;;;;21.47;76.26;100302.53;10230766;28;20113;-55
2021/09/11 19:02:34;;;;;;;7.35;6.07;;;;;;;21.45;78.32;100305.44;10235299;28;20111;-58
2021/09/11 19:07:36;;;;;;;6.22;5.72;;;;;;;21.37;77.55;100300.13;10233013;28;20160;-55
2021/09/11 19:12:38;;;;;;;5.68;4.90;;;;;;;21.27;77.86;100315.84;10236985;28;20046;-54
2021/09/11 19:17:39;;;;;;;5.70;5.03;;;;;;;21.17;80.09;100311.59;10241025;28;20051;-54
2021/09/11 19:22:41;;;;;;;5.47;4.95;;;;;;;21.19;80.30;100311.41;10239824;28;20480;-54
2021/09/11 19:27:43;;;;;;;5.82;5.22;;;;;;;21.14;81.06;100319.28;10242847;28;20198;-54
2021/09/11 19:32:44;;;;;;;9.45;6.05;;;;;;;21.14;80.02;100322.81;10242551;28;20130;-55
2021/09/11 19:37:46;;;;;;;5.60;5.00;;;;;;;21.12;80.42;100326.72;10240472;28;20566;-54
2021/09/11 19:42:48;;;;;;;5.85;5.20;;;;;;;21.09;80.47;100333.38;10241568;28;20062;-54
2021/09/11 19:47:50;;;;;;;7.85;7.05;;;;;;;21.04;80.78;100330.38;10245595;23;20137;-59
2021/09/11 19:52:52;;;;;;;11.07;9.98;;;;;;;20.96;81.05;100327.81;10255439;28;20134;-60
2021/09/11 19:57:53;;;;;;;5.95;4.95;;;;;;;20.98;79.75;100342.78;10251966;28;20094;-59
2021/09/11 20:02:55;;;;;;;7.45;4.43;;;;;;;20.95;77.05;100339.66;10242951;28;20121;-59
2021/09/11 20:07:57;;;;;;;4.13;3.20;;;;;;;20.94;75.25;100336.13;10243002;28;20061;-58
2021/09/11 20:13:03;;;;;;;5.78;4.18;;;;;;;20.94;75.07;100332.56;10244511;28;20078;-59
2021/09/11 20:18:04;;;;;;;5.95;4.72;;;;;;;20.88;75.34;100341.44;10242394;28;20532;-58
2021/09/11 20:23:06;;;;;;;5.68;4.00;;;;;;;20.81;74.58;100350.31;10240186;28;20078;-58
2021/09/11 20:28:07;;;;;;;5.75;3.85;;;;;;;20.75;74.76;100345.66;10237081;28;20138;-58
2021/09/11 20:33:10;;;;;;;4.10;3.70;;;;;;;20.70;74.53;100349.94;10241407;28;20129;-59
2021/09/11 20:38:11;;;;;;;5.00;3.70;;;;;;;20.30;75.93;100356.41;10246603;28;20137;-59
2021/09/11 20:43:15;;;;;;;5.45;4.22;;;;;;;20.38;77.19;100357.38;10243609;28;20066;-58
2021/09/11 20:48:19;;;;;;;5.70;5.03;;;;;;;20.36;76.97;100349.44;10241055;28;20047;-58
2021/09/11 20:53:21;;;;;;;4.53;4.07;;;;;;;20.38;75.87;100366.31;10241385;28;20133;-63
2021/09/11 20:58:23;;;;;;;4.53;4.13;;;;;;;20.31;76.13;100363.50;10245388;28;20157;-59
2021/09/11 21:03:24;;;;;;;4.93;4.45;;;;;;;20.27;76.30;100361.38;10242065;28;20532;-59
2021/09/11 21:08:26;;;;;;;6.00;5.50;;;;;;;20.25;76.74;100371.50;10241426;28;20153;-59
2021/09/11 21:13:28;;;;;;;8.05;6.80;;;;;;;20.24;76.85;100370.69;10244493;28;20145;-59
2021/09/11 21:18:30;;;;;;;7.90;6.70;;;;;;;20.23;77.00;100379.78;10242646;28;20133;-59
2021/09/11 21:23:32;;;;;;;7.50;6.82;;;;;;;20.18;77.11;100374.13;10238907;28;20198;-59
2021/09/11 21:28:33;;;;;;;6.72;5.72;;;;;;;20.17;77.45;100371.59;10228215;28;20575;-59
2021/09/11 21:33:35;;;;;;;7.32;6.72;;;;;;;20.14;78.08;100379.03;10239466;28;20122;-59
2021/09/11 21:38:38;;;;;;;8.05;7.18;;;;;;;20.09;78.74;100380.63;10241523;28;20479;-59
2021/09/11 21:43:43;;;;;;;8.05;6.82;;;;;;;20.03;78.08;100376.78;10236012;28;20140;-59
2021/09/11 21:48:44;;;;;;;7.68;6.97;;;;;;;20.02;79.44;100398.59;10238978;28;20078;-58
2021/09/11 21:53:46;;;;;;;8.40;7.55;;;;;;;19.87;81.04;100401.22;10250654;28;20944;-58
2021/09/11 21:58:47;;;;;;;6.97;6.15;;;;;;;19.90;79.76;100400.88;10240974;28;21831;-57
2021/09/11 22:03:49;;;;;;;7.53;6.82;;;;;;;19.84;80.61;100398.91;10239008;28;20125;-60
2021/09/11 22:08:50;;;;;;;6.53;5.28;;;;;;;19.61;78.96;100405.09;10234728;28;20058;-59
2021/09/11 22:13:52;;;;;;;5.85;5.13;;;;;;;19.30;82.23;100407.81;10234450;28;20081;-59
2021/09/11 22:18:53;;;;;;;7.40;6.38;;;;;;;19.41;82.05;100400.16;10237402;28;20129;-62
2021/09/11 22:23:55;;;;;;;7.18;6.10;;;;;;;19.64;80.85;100410.16;10240587;28;20057;-64
2021/09/11 22:28:57;;;;;;;6.28;5.63;;;;;;;19.70;80.28;100404.03;10235128;28;20137;-63
2021/09/11 22:33:58;;;;;;;9.15;5.97;;;;;;;19.72;80.08;100401.97;10241336;28;20563;-63
2021/09/11 22:39:00;;;;;;;7.53;6.70;;;;;;;19.69;79.06;100402.34;10255959;28;20422;-61
2021/09/11 22:44:01;;;;;;;5.72;5.15;;;;;;;19.61;77.96;100403.22;10245678;28;20414;-63
2021/09/11 22:49:02;;;;;;;6.10;5.60;;;;;;;19.49;78.92;100395.75;10242607;28;20697;-62
2021/09/11 22:54:04;;;;;;;8.52;6.65;;;;;;;19.47;79.91;100395.91;10239410;28;20103;-61
2021/09/11 22:59:05;;;;;;;9.15;8.13;;;;;;;19.45;80.74;100394.41;10244331;28;20078;-61
2021/09/11 23:04:07;;;;;;;10.82;9.70;;;;;;;19.40;81.20;100401.16;10245926;28;20055;-62
2021/09/11 23:09:09;;;;;;;10.18;9.25;;;;;;;19.35;81.47;100408.13;10240822;28;20124;-62